Time;durP1;ratioP1;P1;durP2;ratioP2;P2;SDS_P1;SDS_P2;PMS_P1;PMS_P2;Temp;Humidity;BMP_temperature;BMP_pressure;BME280_temperature;BME280_humidity;BME280_pressure;Samples;Min_cycle;Max_cycle;Signal;HPM_P1;HPM_P2
2022/01/17 00:00:15;;;;;;;73.03;41.00;;;;;;;5.16;99.94;102918.56;5052153;28;20476;-71
2022/01/17 00:02:41;;;;;;;73.43;42.53;;;;;;;5.17;99.62;102922.94;5050166;28;20041;-70
2022/01/17 00:05:08;;;;;;;82.00;41.63;;;;;;;5.17;99.84;102930.16;5052112;28;20098;-70
2022/01/17 00:07:34;;;;;;;71.43;41.03;;;;;;;5.18;99.77;102930.03;5051178;28;20132;-70
2022/01/17 00:10:00;;;;;;;69.43;39.80;;;;;;;5.20;100.00;102938.78;5052126;28;20495;-70
2022/01/17 00:12:28;;;;;;;65.57;40.17;;;;;;;5.22;99.18;102939.47;5052533;28;20025;-71
2022/01/17 00:14:56;;;;;;;70.13;40.42;;;;;;;5.21;99.40;102947.66;5052286;28;20035;-71
2022/01/17 00:19:48;;;;;;;72.43;39.60;;;;;;;5.21;99.45;102945.84;5052455;28;20072;-71
2022/01/17 00:22:15;;;;;;;69.82;39.40;;;;;;;5.24;99.68;102960.81;5052237;28;20037;-71
2022/01/17 00:24:41;;;;;;;72.50;39.97;;;;;;;5.24;99.29;102960.81;5052436;28;20499;-70
2022/01/17 00:27:08;;;;;;;76.47;39.17;;;;;;;5.24;99.41;102959.00;5052052;28;20025;-71
2022/01/17 00:29:34;;;;;;;60.05;37.60;;;;;;;5.23;99.43;102967.19;5052379;28;20040;-71
2022/01/17 00:32:01;;;;;;;65.22;36.20;;;;;;;5.26;99.49;102959.69;5052149;28;20033;-71
2022/01/17 00:34:26;;;;;;;62.92;36.20;;;;;;;5.24;99.53;102958.13;5052386;28;20037;-71
2022/01/17 00:36:52;;;;;;;63.97;35.90;;;;;;;5.20;99.06;102943.31;5052386;28;20029;-70
2022/01/17 00:39:17;;;;;;;59.25;33.53;;;;;;;5.25;98.81;102933.00;5052183;28;20025;-71
2022/01/17 00:41:42;;;;;;;63.83;34.03;;;;;;;5.20;99.40;102943.31;5052403;28;20052;-70
2022/01/17 00:44:08;;;;;;;59.25;32.92;;;;;;;5.23;99.38;102945.72;5052185;28;20112;-70
2022/01/17 00:46:34;;;;;;;57.28;33.38;;;;;;;5.21;99.11;102947.66;5052107;28;20040;-70
2022/01/17 00:48:59;;;;;;;59.22;32.08;;;;;;;5.23;99.29;102951.09;5051626;28;20387;-70
2022/01/17 00:51:25;;;;;;;59.10;32.97;;;;;;;5.24;99.26;102947.41;5052176;28;20021;-71
2022/01/17 00:53:51;;;;;;;61.53;32.97;;;;;;;5.23;99.24;102957.28;5052114;28;20435;-71
2022/01/17 00:56:19;;;;;;;54.05;31.58;;;;;;;5.20;99.41;102954.88;5051793;28;20163;-70
2022/01/17 00:58:44;;;;;;;53.72;30.77;;;;;;;5.25;99.33;102954.47;5052108;28;20025;-71
2022/01/17 01:01:09;;;;;;;51.78;30.40;;;;;;;5.22;99.42;102958.28;5049421;28;20053;-71
2022/01/17 01:03:35;;;;;;;58.55;31.70;;;;;;;5.23;99.32;102967.19;5052141;28;20040;-71
2022/01/17 01:06:00;;;;;;;56.05;31.85;;;;;;;5.23;99.47;102967.19;5051769;28;20056;-71
2022/01/17 01:08:25;;;;;;;49.15;29.55;;;;;;;5.22;99.01;102958.28;5051803;28;20132;-71
2022/01/17 01:10:51;;;;;;;49.75;31.15;;;;;;;5.21;99.38;102959.28;5051994;28;20350;-70
2022/01/17 01:13:22;;;;;;;51.97;30.92;;;;;;;5.25;99.34;102973.25;5051720;28;20029;-70
2022/01/17 01:16:09;;;;;;;48.42;29.23;;;;;;;5.25;99.30;102981.31;5051947;28;20029;-70
2022/01/17 01:21:40;;;;;;;52.90;30.45;;;;;;;5.24;98.79;102985.84;5051675;28;20029;-71
2022/01/17 01:29:22;;;;;;;48.78;27.83;;;;;;;5.27;98.90;102979.38;5055059;28;20044;-70
2022/01/17 01:31:53;;;;;;;49.08;28.77;;;;;;;5.26;98.90;102965.06;5055490;28;20025;-70
2022/01/17 01:34:21;;;;;;;52.35;28.83;;;;;;;5.24;99.15;102964.38;5055266;28;20037;-71
2022/01/17 01:36:48;;;;;;;56.20;28.80;;;;;;;5.20;99.41;102951.38;5055389;28;20040;-71
2022/01/17 01:39:21;;;;;;;54.42;27.83;;;;;;;5.22;98.70;102960.13;5055103;28;20083;-70
2022/01/17 01:41:46;;;;;;;50.50;27.73;;;;;;;5.18;99.22;102951.50;5055286;28;20025;-70
2022/01/17 01:44:23;;;;;;;43.38;25.70;;;;;;;5.17;98.96;102962.38;5054914;28;20391;-71
2022/01/17 01:46:51;;;;;;;38.28;24.35;;;;;;;5.17;98.64;102973.13;5055141;28;20029;-71
2022/01/17 01:49:17;;;;;;;44.92;25.10;;;;;;;5.14;98.41;102979.59;5054883;28;20028;-70
2022/01/17 01:51:44;;;;;;;51.35;25.42;;;;;;;5.12;98.47;102990.47;5055075;28;20108;-71
2022/01/17 01:54:10;;;;;;;42.40;23.67;;;;;;;5.06;98.04;102988.31;5053493;28;20056;-70
2022/01/17 01:56:37;;;;;;;39.58;23.08;;;;;;;5.06;98.29;102993.69;5054951;28;20416;-70
2022/01/17 01:59:03;;;;;;;34.45;21.27;;;;;;;5.06;98.49;102987.50;5054403;28;20387;-71
2022/01/17 02:01:29;;;;;;;36.47;21.73;;;;;;;5.03;98.53;102985.91;5050917;28;20131;-71
2022/01/17 02:03:54;;;;;;;36.47;21.45;;;;;;;4.99;97.93;102976.44;5054952;28;20527;-71
2022/01/17 02:06:19;;;;;;;41.90;21.55;;;;;;;4.97;97.87;102978.41;5054707;28;20029;-69
2022/01/17 02:08:44;;;;;;;35.40;20.27;;;;;;;4.94;98.56;102982.19;5054834;28;20033;-70
2022/01/17 02:11:11;;;;;;;37.00;20.27;;;;;;;4.89;97.32;102981.78;5054480;28;20037;-70
2022/01/17 02:13:38;;;;;;;35.35;19.95;;;;;;;4.89;97.87;102980.91;5055009;28;20082;-70
2022/01/17 02:16:06;;;;;;;33.65;20.95;;;;;;;4.85;97.22;102988.38;5053039;28;20475;-71
2022/01/17 02:18:32;;;;;;;39.10;21.58;;;;;;;4.84;97.63;102985.84;5054572;28;20032;-70
2022/01/17 02:23:45;;;;;;;36.00;19.50;;;;;;;4.81;97.41;102988.78;5054524;28;20033;-70
2022/01/17 02:26:11;;;;;;;40.40;19.08;;;;;;;4.79;97.06;102987.06;5054163;28;20082;-70
2022/01/17 02:28:37;;;;;;;35.40;19.25;;;;;;;4.74;97.29;102985.78;5054188;28;20116;-70
2022/01/17 02:31:06;;;;;;;34.17;18.08;;;;;;;4.73;96.82;102976.88;5054465;28;20487;-70
2022/01/17 02:33:33;;;;;;;39.25;18.83;;;;;;;4.70;97.45;102987.88;5054346;28;20052;-70
2022/01/17 02:35:59;;;;;;;41.20;19.70;;;;;;;4.64;96.93;102983.06;5054258;28;20107;-70
2022/01/17 02:38:24;;;;;;;37.83;19.20;;;;;;;4.62;96.79;102979.66;5053452;28;20593;-70
2022/01/17 02:40:51;;;;;;;34.83;18.98;;;;;;;4.59;97.37;102991.50;5054486;28;20136;-70
2022/01/17 02:43:18;;;;;;;35.72;18.67;;;;;;;4.59;97.61;102993.34;5053820;28;20136;-70
2022/01/17 02:48:19;;;;;;;37.17;20.85;;;;;;;4.57;97.17;102988.09;5053721;28;20033;-70
2022/01/17 02:50:44;;;;;;;37.88;20.50;;;;;;;4.54;97.12;102982.16;5054236;28;20029;-70
2022/01/17 02:53:12;;;;;;;47.17;21.08;;;;;;;4.53;97.27;102980.44;5053739;28;20037;-70
2022/01/17 02:55:53;;;;;;;41.67;21.30;;;;;;;4.50;97.57;102986.06;5053880;28;20107;-71
2022/01/17 02:58:20;;;;;;;44.15;21.75;;;;;;;4.47;97.72;102987.19;5053606;28;20029;-70
2022/01/17 03:00:50;;;;;;;41.95;21.75;;;;;;;4.48;97.75;102990.72;5050821;28;20045;-70
2022/01/17 03:03:17;;;;;;;43.72;23.00;;;;;;;4.48;98.01;102988.03;5053532;28;20028;-71
2022/01/17 03:05:43;;;;;;;44.70;23.30;;;;;;;4.46;97.93;102979.28;5053598;28;20032;-71
2022/01/17 03:08:08;;;;;;;44.22;22.50;;;;;;;4.41;98.12;102980.53;5053393;28;20025;-70
2022/01/17 03:10:40;;;;;;;49.97;23.38;;;;;;;4.40;97.88;102981.50;5053842;28;20033;-70
2022/01/17 03:13:13;;;;;;;;;;;;;;;4.48;98.26;102982.69;5053937;28;20033;-71
2022/01/17 03:15:39;;;;;;;42.10;23.63;;;;;;;4.39;98.00;102974.47;5053465;28;20259;-71
2022/01/17 03:18:04;;;;;;;47.97;25.55;;;;;;;4.39;97.68;102969.09;5053434;28;20090;-71
2022/01/17 03:20:31;;;;;;;48.08;23.85;;;;;;;4.37;98.12;102973.72;5052943;28;20028;-71
2022/01/17 03:22:56;;;;;;;41.08;23.35;;;;;;;4.34;98.38;102976.66;5053504;28;20036;-78
2022/01/17 03:25:22;;;;;;;47.10;24.58;;;;;;;4.34;98.19;102974.00;5053180;28;20025;-72
2022/01/17 03:27:47;;;;;;;42.90;23.65;;;;;;;4.33;98.17;102969.59;5053113;28;20425;-75
2022/01/17 03:30:13;;;;;;;46.50;24.70;;;;;;;4.31;98.31;102965.38;5051683;28;20070;-73
2022/01/17 03:32:38;;;;;;;51.70;25.25;;;;;;;4.30;97.73;102952.94;5053156;28;20377;-73
2022/01/17 03:35:04;;;;;;;43.92;23.77;;;;;;;4.31;98.29;102971.56;5053094;28;20037;-71
2022/01/17 03:37:29;;;;;;;45.72;25.42;;;;;;;4.29;98.16;102970.00;5052537;28;20388;-71
2022/01/17 03:39:55;;;;;;;45.63;24.65;;;;;;;4.33;98.10;102976.81;5051763;28;20028;-71
2022/01/17 03:42:21;;;;;;;47.33;24.15;;;;;;;4.28;98.17;102977.19;5051533;28;20376;-71
2022/01/17 03:44:46;;;;;;;43.38;22.75;;;;;;;4.28;97.93;102992.44;5052924;28;20366;-71
2022/01/17 03:47:12;;;;;;;37.85;22.98;;;;;;;4.27;97.93;102980.84;5052602;28;20040;-71
2022/01/17 03:49:38;;;;;;;41.67;23.45;;;;;;;4.25;97.98;102989.03;5051970;28;20036;-71
2022/01/17 03:52:05;;;;;;;42.83;23.33;;;;;;;4.27;98.25;102986.22;5052594;28;20040;-71
2022/01/17 03:54:34;;;;;;;41.88;20.92;;;;;;;4.30;97.75;102985.94;5052550;28;20102;-71
2022/01/17 03:56:59;;;;;;;38.90;20.15;;;;;;;4.29;97.39;102983.41;5052775;28;20036;-71
2022/01/17 03:59:25;;;;;;;36.20;19.67;;;;;;;4.28;97.81;102979.88;5052289;28;20357;-72
2022/01/17 04:01:50;;;;;;;34.28;19.90;;;;;;;4.25;97.25;102975.63;5050016;28;20033;-71
2022/01/17 04:04:16;;;;;;;35.63;19.48;;;;;;;4.25;97.23;102977.47;5052433;28;20116;-72
2022/01/17 04:06:41;;;;;;;33.67;18.67;;;;;;;4.24;96.83;102984.66;5052533;28;20379;-71
2022/01/17 04:09:07;;;;;;;34.72;17.50;;;;;;;4.21;97.03;102984.91;5052617;28;20037;-71
2022/01/17 04:11:32;;;;;;;37.35;16.83;;;;;;;4.19;96.73;102983.34;5052652;28;20029;-71
2022/01/17 04:13:57;;;;;;;36.72;17.02;;;;;;;4.18;96.65;102992.34;5052794;28;20449;-71
2022/01/17 04:16:23;;;;;;;30.70;15.93;;;;;;;4.15;96.70;102996.16;5051057;28;20033;-71
2022/01/17 04:18:48;;;;;;;34.70;15.60;;;;;;;4.14;96.63;102990.94;5052503;28;20029;-71
2022/01/17 04:21:13;;;;;;;28.25;15.40;;;;;;;4.13;96.14;102995.44;5052239;28;20415;-71
2022/01/17 04:23:38;;;;;;;29.10;15.52;;;;;;;4.12;96.67;102993.72;5052495;28;20067;-71
2022/01/17 04:26:04;;;;;;;26.92;14.88;;;;;;;4.11;96.30;102997.41;5052549;28;20024;-71
2022/01/17 04:28:30;;;;;;;26.00;14.88;;;;;;;4.11;96.60;103001.88;5052174;28;20526;-71
2022/01/17 04:30:56;;;;;;;29.15;14.57;;;;;;;4.10;96.61;103003.72;5052083;28;20486;-71
2022/01/17 04:33:21;;;;;;;30.98;14.52;;;;;;;4.10;96.44;103017.13;5051811;28;20104;-71
2022/01/17 04:35:46;;;;;;;25.67;14.10;;;;;;;4.10;96.42;103005.56;5052650;28;20060;-72
2022/01/17 04:38:18;;;;;;;31.67;13.93;;;;;;;4.10;96.08;103005.56;5052641;28;20392;-72
2022/01/17 04:40:47;;;;;;;29.10;13.93;;;;;;;4.07;95.92;103012.84;5052381;28;20120;-72
2022/01/17 04:43:43;;;;;;;27.23;13.98;;;;;;;4.07;96.38;103012.84;5052118;28;20028;-72
2022/01/17 04:46:10;;;;;;;28.27;14.00;;;;;;;4.04;96.47;103002.41;5051795;28;20079;-71
2022/01/17 04:48:36;;;;;;;29.20;14.70;;;;;;;4.03;96.23;103000.72;5051654;28;20499;-71
2022/01/17 04:51:02;;;;;;;32.17;15.25;;;;;;;4.01;96.62;103007.19;5052545;28;20035;-71
2022/01/17 04:53:28;;;;;;;29.88;14.90;;;;;;;3.99;96.37;102998.44;5051578;28;20067;-71
2022/01/17 04:55:54;;;;;;;31.30;15.50;;;;;;;3.99;96.16;102999.28;5051881;28;20052;-72
2022/01/17 04:58:19;;;;;;;28.30;15.68;;;;;;;3.95;96.59;103000.50;5052100;28;20472;-71
2022/01/17 05:00:48;;;;;;;26.50;14.88;;;;;;;3.94;96.45;103001.50;5049918;28;20474;-72
2022/01/17 05:03:15;;;;;;;32.72;16.42;;;;;;;3.94;96.55;103000.63;5056030;28;20052;-72
2022/01/17 05:05:40;;;;;;;30.38;16.70;;;;;;;3.92;96.54;103018.66;5055882;28;20037;-71
2022/01/17 05:08:06;;;;;;;32.13;16.65;;;;;;;3.90;96.81;103016.13;5054627;28;20036;-72
2022/01/17 05:10:31;;;;;;;31.20;16.42;;;;;;;3.88;96.91;103015.38;5055636;28;20033;-72
2022/01/17 05:12:56;;;;;;;31.67;16.75;;;;;;;3.91;96.63;103015.16;5055484;28;20147;-72
2022/01/17 05:15:33;;;;;;;31.35;16.90;;;;;;;3.88;97.02;103023.41;5054233;28;20025;-72
2022/01/17 05:20:24;;;;;;;32.42;17.10;;;;;;;3.88;96.62;103036.81;5055392;28;20037;-71
2022/01/17 05:22:50;;;;;;;30.90;16.65;;;;;;;3.85;96.66;103029.88;5055376;28;20170;-71
2022/01/17 05:25:16;;;;;;;27.63;16.02;;;;;;;3.87;96.56;103040.47;5055784;28;20116;-72
2022/01/17 05:27:42;;;;;;;31.00;16.92;;;;;;;3.86;96.60;103038.75;5055498;28;20032;-72
2022/01/17 05:30:13;;;;;;;34.47;16.80;;;;;;;3.84;96.55;103032.69;5055505;28;20025;-71
2022/01/17 05:32:38;;;;;;;32.15;17.40;;;;;;;3.84;96.69;103036.22;5055326;28;20408;-72
2022/01/17 05:35:04;;;;;;;33.53;16.40;;;;;;;3.83;96.67;103044.38;5055457;28;20052;-72
2022/01/17 05:37:29;;;;;;;30.63;16.42;;;;;;;3.81;96.46;103047.19;5054936;28;20029;-72
2022/01/17 05:39:55;;;;;;;29.48;16.33;;;;;;;3.80;96.67;103039.28;5055299;28;20040;-71
2022/01/17 05:42:20;;;;;;;28.33;17.05;;;;;;;3.79;96.60;103045.59;5053767;28;20032;-71
2022/01/17 05:44:48;;;;;;;30.23;17.33;;;;;;;3.79;96.29;103049.16;5055464;28;20487;-71
2022/01/17 05:47:15;;;;;;;33.63;18.30;;;;;;;3.76;96.55;103048.53;5055134;28;20086;-72
2022/01/17 05:49:41;;;;;;;34.88;17.85;;;;;;;3.81;96.47;103051.69;5054658;28;20396;-71
2022/01/17 05:52:07;;;;;;;36.28;19.15;;;;;;;3.78;96.54;103047.44;5055183;28;20032;-71
2022/01/17 05:54:32;;;;;;;29.55;18.52;;;;;;;3.77;96.42;103043.03;5055285;28;20043;-71
2022/01/17 05:56:58;;;;;;;33.97;19.45;;;;;;;3.77;96.67;103044.88;5055035;28;20171;-71
2022/01/17 05:59:24;;;;;;;36.83;20.15;;;;;;;3.72;96.58;103040.75;5054524;28;20380;-71
2022/01/17 06:01:49;;;;;;;36.80;19.95;;;;;;;3.73;96.66;103044.28;5052478;28;20063;-72
2022/01/17 06:04:15;;;;;;;35.85;20.48;;;;;;;3.73;96.70;103066.56;5054561;28;20037;-71
2022/01/17 06:06:40;;;;;;;35.83;20.33;;;;;;;3.73;96.98;103050.50;5053325;28;20472;-72
2022/01/17 06:09:06;;;;;;;34.70;20.35;;;;;;;3.71;96.28;103055.13;5054804;28;20064;-72
2022/01/17 06:11:33;;;;;;;34.45;20.70;;;;;;;3.69;96.90;103045.50;5054746;28;20037;-72
2022/01/17 06:13:59;;;;;;;36.92;22.17;;;;;;;3.68;96.70;103054.50;5053545;28;20480;-71
2022/01/17 06:16:24;;;;;;;41.08;21.80;;;;;;;3.66;96.60;103062.66;5054397;28;20033;-71
2022/01/17 06:18:50;;;;;;;37.00;21.05;;;;;;;3.66;96.86;103065.34;5053319;28;20033;-71
2022/01/17 06:21:15;;;;;;;36.92;21.38;;;;;;;3.66;96.75;103056.47;5054519;28;20025;-71
2022/01/17 06:23:40;;;;;;;34.88;21.10;;;;;;;3.67;96.88;103058.19;5054309;28;20029;-71
2022/01/17 06:26:06;;;;;;;37.00;21.83;;;;;;;3.63;96.78;103062.09;5054388;28;20029;-71
2022/01/17 06:28:31;;;;;;;39.05;22.30;;;;;;;3.64;96.64;103070.00;5054419;28;20111;-71
2022/01/17 06:30:56;;;;;;;35.53;20.98;;;;;;;3.62;96.74;103068.41;5054341;28;20368;-71
2022/01/17 06:33:21;;;;;;;34.50;21.40;;;;;;;3.61;96.75;103064.88;5053860;28;20112;-71
2022/01/17 06:35:47;;;;;;;33.28;21.42;;;;;;;3.57;96.64;103063.41;5054260;28;20377;-71
2022/01/17 06:38:12;;;;;;;36.25;22.35;;;;;;;3.58;97.00;103064.25;5054234;28;20036;-71
2022/01/17 06:40:37;;;;;;;44.35;24.00;;;;;;;3.57;97.08;103066.09;5053979;28;20159;-71
2022/01/17 06:43:04;;;;;;;35.88;22.63;;;;;;;3.60;97.29;103083.75;5053716;28;20029;-71
2022/01/17 06:45:30;;;;;;;38.17;22.67;;;;;;;3.56;96.99;103088.47;5053920;28;20037;-71
2022/01/17 06:47:55;;;;;;;38.90;23.25;;;;;;;3.59;96.92;103077.53;5053718;28;20392;-71
2022/01/17 06:50:20;;;;;;;36.67;23.38;;;;;;;3.54;97.20;103069.03;5052760;28;20029;-71
2022/01/17 06:52:46;;;;;;;40.90;24.42;;;;;;;3.55;97.27;103081.44;5053861;28;20124;-71
2022/01/17 06:55:11;;;;;;;43.92;23.90;;;;;;;3.53;97.53;103075.34;5053894;28;20025;-71
2022/01/17 06:57:37;;;;;;;42.03;24.27;;;;;;;3.56;97.16;103099.19;5053612;28;20547;-71
2022/01/17 07:00:10;;;;;;;44.05;24.58;;;;;;;3.58;97.59;103105.28;5053719;28;20044;-71
2022/01/17 07:02:35;;;;;;;40.97;24.65;;;;;;;3.54;97.19;103115.38;5051054;28;20460;-71
2022/01/17 07:05:00;;;;;;;43.80;24.80;;;;;;;3.54;97.20;103111.84;5053747;28;20032;-71
2022/01/17 07:07:26;;;;;;;39.03;24.05;;;;;;;3.57;97.13;103121.47;5051960;28;20112;-71
2022/01/17 07:09:51;;;;;;;41.83;24.60;;;;;;;3.54;97.35;103144.00;5053957;28;20031;-71
2022/01/17 07:12:16;;;;;;;42.88;24.55;;;;;;;3.53;97.08;103139.59;5053555;28;20069;-71
2022/01/17 07:14:42;;;;;;;41.60;24.33;;;;;;;3.53;97.28;103115.50;5053006;28;20388;-71
2022/01/17 07:17:09;;;;;;;40.95;23.92;;;;;;;3.52;96.91;103103.13;5053796;28;20028;-71
2022/01/17 07:19:34;;;;;;;41.72;24.15;;;;;;;3.49;97.43;103095.31;5051914;28;20033;-71
2022/01/17 07:22:00;;;;;;;37.40;24.23;;;;;;;3.54;96.93;103093.97;5053397;28;20055;-72
2022/01/17 07:24:25;;;;;;;40.35;22.92;;;;;;;3.50;97.40;103080.94;5052978;28;20021;-72
2022/01/17 07:26:51;;;;;;;39.72;23.48;;;;;;;3.51;97.24;103062.09;5053238;28;20033;-71
2022/01/17 07:29:16;;;;;;;40.83;23.08;;;;;;;3.54;97.51;103061.00;5053620;28;20275;-71
2022/01/17 07:31:41;;;;;;;39.60;22.27;;;;;;;3.58;97.26;103067.81;5051678;28;20071;-72
2022/01/17 07:34:07;;;;;;;36.15;22.50;;;;;;;3.60;97.70;103084.59;5053201;28;20068;-72
2022/01/17 07:36:33;;;;;;;39.25;23.13;;;;;;;3.60;97.67;103089.09;5052941;28;20025;-71
2022/01/17 07:38:59;;;;;;;42.83;24.08;;;;;;;3.59;97.91;103090.91;5053163;28;20033;-72
2022/01/17 07:41:25;;;;;;;39.60;23.27;;;;;;;3.59;98.02;103106.97;5052855;28;20118;-72
2022/01/17 07:43:52;;;;;;;36.20;22.35;;;;;;;3.62;97.92;103109.41;5051681;28;20045;-72
2022/01/17 07:49:10;;;;;;;36.38;22.73;;;;;;;3.66;97.55;103093.97;5052699;28;20379;-71
2022/01/17 07:51:37;;;;;;;39.55;23.08;;;;;;;3.63;97.73;103108.44;5052709;28;20116;-72
2022/01/17 07:54:04;;;;;;;45.88;24.65;;;;;;;3.69;97.59;103121.34;5051515;28;20357;-71
2022/01/17 07:56:30;;;;;;;34.63;23.00;;;;;;;3.66;97.85;103121.59;5052602;28;20032;-71
2022/01/17 07:58:55;;;;;;;37.17;24.55;;;;;;;3.65;97.76;103125.22;5052798;28;20025;-72
2022/01/17 08:01:21;;;;;;;43.80;24.85;;;;;;;3.70;97.91;103133.75;5050480;28;20049;-72
2022/01/17 08:03:46;;;;;;;38.60;24.55;;;;;;;3.70;98.01;103138.28;5052325;28;20068;-71
2022/01/17 08:06:11;;;;;;;38.53;24.17;;;;;;;3.68;97.70;103148.22;5052387;28;20031;-71
2022/01/17 08:08:37;;;;;;;42.25;23.83;;;;;;;3.69;98.06;103150.78;5052131;28;20032;-71
2022/01/17 08:11:02;;;;;;;48.75;24.45;;;;;;;3.69;98.06;103150.78;5052613;28;20028;-71
2022/01/17 08:13:28;;;;;;;41.03;24.83;;;;;;;3.70;98.08;103165.06;5051056;28;20029;-72
2022/01/17 08:15:55;;;;;;;44.85;24.23;;;;;;;3.71;98.17;103164.94;5052579;28;20071;-72
2022/01/17 08:18:20;;;;;;;44.85;24.23;;;;;;;3.81;98.08;103158.84;5051124;28;20029;-71
2022/01/17 08:20:45;;;;;;;39.42;24.10;;;;;;;3.81;97.62;103150.78;5052374;28;20376;-71
2022/01/17 08:23:11;;;;;;;42.00;24.65;;;;;;;3.75;97.87;103138.75;5052559;28;20040;-71
2022/01/17 08:25:37;;;;;;;44.22;24.27;;;;;;;3.77;97.85;103152.84;5052162;28;20524;-72
2022/01/17 08:28:02;;;;;;;36.90;24.20;;;;;;;3.79;97.72;103148.25;5052002;28;20025;-72
2022/01/17 08:30:28;;;;;;;40.45;24.42;;;;;;;3.87;98.11;103153.81;5050297;28;20056;-72
2022/01/17 08:32:55;;;;;;;38.72;24.08;;;;;;;3.92;97.31;103158.78;5050733;28;20037;-72
2022/01/17 08:35:21;;;;;;;42.72;23.30;;;;;;;3.97;97.85;103161.97;5052323;28;20110;-71
2022/01/17 08:37:46;;;;;;;39.97;23.65;;;;;;;3.96;98.27;103156.75;5055736;28;20476;-70
2022/01/17 08:40:13;;;;;;;36.72;23.48;;;;;;;4.02;97.84;103164.28;5056474;28;20036;-70
2022/01/17 08:42:38;;;;;;;35.13;23.38;;;;;;;4.02;98.12;103153.56;5056130;28;20114;-70
2022/01/17 08:45:09;;;;;;;41.30;24.17;;;;;;;4.10;98.19;103150.25;5056298;28;20036;-70
2022/01/17 08:47:35;;;;;;;35.75;23.15;;;;;;;4.10;98.29;103136.84;5056033;28;20032;-70
2022/01/17 08:50:02;;;;;;;40.95;24.33;;;;;;;4.13;97.97;103133.94;5056231;28;20024;-70
2022/01/17 08:52:27;;;;;;;41.15;24.52;;;;;;;4.19;97.92;103144.13;5056345;28;20064;-70
2022/01/17 08:54:53;;;;;;;34.80;22.88;;;;;;;4.25;97.79;103149.00;5056269;28;20478;-70
2022/01/17 08:57:19;;;;;;;38.78;22.95;;;;;;;4.27;98.12;103147.03;5056116;28;20110;-70
2022/01/17 08:59:45;;;;;;;37.60;22.08;;;;;;;4.28;97.95;103156.78;5055893;28;20133;-70
2022/01/17 09:02:11;;;;;;;32.30;20.65;;;;;;;4.30;98.05;103162.00;5053574;28;20052;-70
2022/01/17 09:04:40;;;;;;;35.45;21.92;;;;;;;4.32;97.96;103160.91;5054147;28;20056;-70
2022/01/17 09:07:07;;;;;;;39.90;20.73;;;;;;;4.35;97.97;103160.66;5055890;28;20032;-70
2022/01/17 09:09:32;;;;;;;34.00;20.35;;;;;;;4.42;97.47;103167.22;5055614;28;20051;-70
2022/01/17 09:11:58;;;;;;;33.95;19.63;;;;;;;4.47;97.59;103160.59;5054149;28;20062;-70
2022/01/17 09:14:23;;;;;;;40.88;19.75;;;;;;;4.50;97.23;103165.72;5056179;28;20459;-70
2022/01/17 09:16:48;;;;;;;40.53;20.48;;;;;;;4.53;97.72;103162.78;5055616;28;20457;-70
2022/01/17 09:19:13;;;;;;;34.65;19.73;;;;;;;4.52;97.65;103174.50;5055783;28;20102;-70
2022/01/17 09:21:39;;;;;;;35.17;17.33;;;;;;;4.55;97.49;103195.69;5055448;28;20052;-70
2022/01/17 09:24:04;;;;;;;35.45;18.30;;;;;;;4.58;97.54;103204.31;5055662;28;20043;-70
2022/01/17 09:26:30;;;;;;;37.58;17.80;;;;;;;4.60;97.47;103212.25;5055514;28;20025;-70
2022/01/17 09:28:55;;;;;;;35.45;16.85;;;;;;;4.63;97.11;103205.78;5055373;28;20090;-70
2022/01/17 09:31:21;;;;;;;35.08;17.23;;;;;;;4.70;97.26;103207.81;5054204;28;20028;-70
2022/01/17 09:33:47;;;;;;;37.30;16.85;;;;;;;4.72;97.47;103216.56;5055276;28;20033;-70
2022/01/17 09:36:13;;;;;;;36.00;15.63;;;;;;;4.76;96.92;103212.66;5055395;28;20060;-70
2022/01/17 09:38:39;;;;;;;34.50;15.90;;;;;;;4.78;97.45;103212.53;5055132;28;20456;-70
2022/01/17 09:41:04;;;;;;;39.25;16.20;;;;;;;4.79;97.13;103207.03;5055123;28;20029;-70
2022/01/17 09:43:30;;;;;;;33.17;15.27;;;;;;;4.83;96.69;103206.78;5055210;28;20460;-70
2022/01/17 09:45:56;;;;;;;35.88;14.27;;;;;;;4.90;96.50;103208.81;5053592;28;20029;-70
2022/01/17 09:48:24;;;;;;;29.17;14.50;;;;;;;4.89;96.57;103212.50;5052594;28;20528;-70
2022/01/17 09:51:05;;;;;;;33.92;13.73;;;;;;;4.93;96.45;103221.13;5055238;28;20029;-70
2022/01/17 09:53:38;;;;;;;33.47;13.70;;;;;;;4.96;96.72;103223.56;5055196;28;20029;-70
2022/01/17 09:56:06;;;;;;;26.63;12.75;;;;;;;4.99;96.47;103228.66;5055066;28;20040;-70
2022/01/17 09:58:39;;;;;;;31.73;12.95;;;;;;;5.00;96.15;103230.38;5054972;28;20032;-70
2022/01/17 10:01:05;;;;;;;32.58;13.13;;;;;;;4.99;96.38;103250.13;5052481;28;20060;-70
2022/01/17 10:03:31;;;;;;;30.70;12.70;;;;;;;5.01;96.11;103253.53;5053766;28;20021;-70
2022/01/17 10:05:57;;;;;;;27.50;11.32;;;;;;;5.04;96.08;103236.31;5054466;28;20100;-70
2022/01/17 10:08:23;;;;;;;27.30;12.00;;;;;;;5.03;96.44;103246.22;5054501;28;20025;-70
2022/01/17 10:10:56;;;;;;;27.20;10.95;;;;;;;5.10;95.45;103247.41;5054540;28;20400;-70
2022/01/17 10:13:42;;;;;;;33.35;11.27;;;;;;;5.13;96.11;103240.91;5054513;28;20090;-70
2022/01/17 10:16:14;;;;;;;28.15;10.65;;;;;;;5.11;95.76;103250.94;5054355;28;20032;-70
2022/01/17 10:18:48;;;;;;;25.65;10.65;;;;;;;5.09;95.61;103250.22;5054373;28;20039;-70
2022/01/17 10:21:26;;;;;;;31.73;11.40;;;;;;;5.10;95.77;103244.72;5054606;28;20033;-70
2022/01/17 10:37:15;;;;;;;35.30;9.40;;;;;;;5.29;94.82;103267.31;5054267;28;20044;-70
2022/01/17 10:40:15;;;;;;;32.72;9.80;;;;;;;5.27;95.16;103263.94;5054052;28;20033;-70
2022/01/17 10:42:47;;;;;;;32.83;9.60;;;;;;;5.28;95.39;103262.91;5046211;28;20037;-70
2022/01/17 10:45:15;;;;;;;27.15;8.90;;;;;;;5.32;95.32;103257.16;5054080;28;20108;-70
2022/01/17 10:47:44;;;;;;;28.27;8.57;;;;;;;5.32;95.09;103261.69;5053734;28;20037;-70
2022/01/17 10:50:12;;;;;;;28.60;9.43;;;;;;;5.32;94.35;103267.06;5053960;28;20025;-70
2022/01/17 10:52:43;;;;;;;28.08;8.77;;;;;;;5.36;95.02;103265.81;5053697;28;20028;-70
2022/01/17 10:55:22;;;;;;;29.98;8.25;;;;;;;5.38;94.71;103271.06;5053931;28;20384;-70
2022/01/17 10:57:53;;;;;;;30.52;8.63;;;;;;;5.42;94.92;103283.22;5052322;28;20381;-70
2022/01/17 11:00:28;;;;;;;28.80;8.23;;;;;;;5.41;95.39;103292.28;5053372;28;20049;-70
2022/01/17 11:03:00;;;;;;;30.92;8.07;;;;;;;5.44;94.54;103287.50;5053049;28;20025;-70
2022/01/17 11:05:28;;;;;;;35.28;7.97;;;;;;;5.45;94.33;103291.88;5053785;28;20033;-70
2022/01/17 11:07:56;;;;;;;30.75;8.68;;;;;;;5.43;95.31;103291.16;5052155;28;20061;-70
2022/01/17 11:10:27;;;;;;;31.38;8.18;;;;;;;5.49;94.94;103290.63;5053803;28;20033;-70
2022/01/17 11:12:57;;;;;;;31.75;8.07;;;;;;;5.53;94.86;103309.19;5053449;28;20297;-70
2022/01/17 11:15:24;;;;;;;31.13;8.20;;;;;;;5.56;94.65;103307.06;5053579;28;20073;-70
2022/01/17 11:17:52;;;;;;;33.70;7.75;;;;;;;5.58;94.16;103296.19;5053227;28;20029;-71
2022/01/17 11:20:20;;;;;;;30.77;8.20;;;;;;;5.58;94.11;103304.25;5052143;28;20029;-71
2022/01/17 11:22:48;;;;;;;29.67;8.50;;;;;;;5.63;94.19;103293.97;5053076;28;20043;-71
2022/01/17 11:25:21;;;;;;;33.58;7.50;;;;;;;5.66;93.92;103288.31;5053496;28;20087;-71
2022/01/17 11:27:47;;;;;;;32.67;8.00;;;;;;;5.67;93.60;103287.34;5053134;28;20053;-71
2022/01/17 11:30:12;;;;;;;35.95;8.38;;;;;;;5.67;94.27;103281.97;5053311;28;20457;-71
2022/01/17 11:32:39;;;;;;;29.50;7.68;;;;;;;5.71;93.84;103275.38;5053236;28;20044;-71
2022/01/17 11:35:06;;;;;;;29.58;7.00;;;;;;;5.77;93.34;103272.13;5053186;28;20032;-71
2022/01/17 11:37:35;;;;;;;25.80;7.35;;;;;;;5.75;93.73;103260.69;5053058;28;20408;-71
2022/01/17 11:40:01;;;;;;;31.75;7.45;;;;;;;5.75;93.97;103244.56;5052855;28;20025;-70
2022/01/17 11:42:31;;;;;;;28.48;7.03;;;;;;;5.77;93.65;103260.56;5053052;28;20111;-71
2022/01/17 11:44:57;;;;;;;31.42;7.30;;;;;;;5.81;93.75;103272.72;5052411;28;20111;-71
2022/01/17 11:47:55;;;;;;;31.02;7.20;;;;;;;5.88;93.31;103267.66;5052873;28;20508;-71
2022/01/17 11:50:34;;;;;;;31.38;8.75;;;;;;;5.93;92.93;103292.28;5052939;28;20052;-71
2022/01/17 11:53:11;;;;;;;35.65;7.80;;;;;;;5.89;93.01;103301.59;5052689;28;20044;-71